Terminal Aerodrome Forecast
Issued by NWS Austin/San Antonio, TX

Home | Current Version | Previous Version | Text Only | Print | Product List | Glossary On
Versions: 1 2 3 4 5 6 7 8 9 10 11 12 13 14 15 16 17 18 19 20 21 22 23 24 25 26
000
FTUS44 KEWX 270619 AAA
TAFAUS
TAF AMD
KAUS 270619Z 2706/2812 28014G24KT P6SM -TSRA OVC009CB
      TEMPO 2706/2708 VRB20G30KT 2SM TSRA OVC010CB
     FM270900 29007KT P6SM OVC070
     FM271300 32007KT P6SM BKN012 BKN080
     FM271500 31005KT P6SM SCT100
     FM280800 35010KT P6SM OVC010=

USA.gov is the U.S. government's official web portal to all federal, state and local government web resources and services.